Time;durP1;ratioP1;P1;durP2;ratioP2;P2;SDS_P1;SDS_P2;PMS_P1;PMS_P2;Temp;Humidity;BMP_temperature;BMP_pressure;BME280_temperature;BME280_humidity;BME280_pressure;Samples;Min_cycle;Max_cycle;Signal;HPM_P1;HPM_P2
2024/04/16 00:00:03;;;;;;;8.20;1.23;;;;;;;6.46;100.00;100090.84;5329643;26;20482;-74
2024/04/16 00:02:28;;;;;;;9.20;1.07;;;;;;;5.79;100.00;99972.16;5372998;26;20289;-74
2024/04/16 00:04:54;;;;;;;;;;;;;;;6.48;100.00;100072.81;5375514;26;20245;-75
2024/04/16 00:07:19;;;;;;;8.17;1.17;;;;;;;6.38;100.00;100057.16;5376487;26;20236;-74
2024/04/16 00:09:45;;;;;;;6.27;1.20;;;;;;;6.00;100.00;99977.53;5327463;26;20602;-74
2024/04/16 00:12:10;;;;;;;6.33;1.10;;;;;;;5.70;100.00;99960.81;5372347;26;20351;-75
2024/04/16 00:14:36;;;;;;;4.93;0.97;;;;;;;6.24;100.00;100010.91;5368457;26;20263;-74
2024/04/16 00:17:02;;;;;;;9.50;1.60;;;;;;;5.24;100.00;99837.97;5374723;26;20355;-74
2024/04/16 00:19:27;;;;;;;5.40;1.10;;;;;;;6.37;100.00;99986.25;5373643;26;20946;-74
2024/04/16 00:21:52;;;;;;;6.10;0.80;;;;;;;5.84;100.00;99895.22;5372296;26;20245;-74
2024/04/16 00:24:18;;;;;;;7.10;1.10;;;;;;;6.26;100.00;99966.28;5369360;26;20280;-74
2024/04/16 00:26:44;;;;;;;5.70;1.20;;;;;;;5.97;100.00;99937.97;5370361;26;20235;-74
2024/04/16 00:29:09;;;;;;;9.33;1.33;;;;;;;6.26;100.00;99950.31;5379082;26;20850;-74
2024/04/16 00:31:35;;;;;;;6.60;1.20;;;;;;;5.80;100.00;99896.63;5370655;26;20379;-74
2024/04/16 00:34:00;;;;;;;5.50;1.00;;;;;;;6.06;100.00;99914.69;5358701;26;20600;-75
2024/04/16 00:36:26;;;;;;;5.17;0.87;;;;;;;5.78;100.00;99888.00;5373084;26;20280;-74
2024/04/16 00:38:51;;;;;;;6.10;1.00;;;;;;;6.06;100.00;99947.47;5375205;26;20258;-74
2024/04/16 00:41:16;;;;;;;7.13;0.90;;;;;;;5.91;100.00;99952.00;5373142;26;20234;-74
2024/04/16 00:43:42;;;;;;;16.10;1.20;;;;;;;5.40;100.00;99872.28;5372975;26;20242;-74
2024/04/16 00:46:07;;;;;;;5.80;1.00;;;;;;;5.29;100.00;99832.91;5376222;26;20304;-74
2024/04/16 00:48:33;;;;;;;6.53;1.03;;;;;;;6.26;100.00;99989.44;5341750;26;20268;-74
2024/04/16 00:50:59;;;;;;;5.30;1.20;;;;;;;5.87;100.00;99906.34;5371072;26;20246;-74
2024/04/16 00:53:27;;;;;;;5.67;0.87;;;;;;;6.21;100.00;99979.34;5371704;26;20249;-74
2024/04/16 00:55:55;;;;;;;5.80;0.80;;;;;;;5.91;100.00;99991.94;5374041;26;20849;-74
2024/04/16 00:58:22;;;;;;;5.13;1.00;;;;;;;6.14;100.00;100001.63;5373456;26;20489;-74
2024/04/16 01:00:48;;;;;;;5.40;0.93;;;;;;;6.15;100.00;100024.56;5323651;26;20470;-74
2024/04/16 01:03:14;;;;;;;10.17;0.90;;;;;;;5.93;100.00;99991.72;5374452;26;20605;-74
2024/04/16 01:05:40;;;;;;;5.03;1.00;;;;;;;6.19;100.00;100026.66;5367446;26;20637;-74
2024/04/16 01:08:08;;;;;;;6.70;1.00;;;;;;;6.07;100.00;100044.94;5369009;26;20536;-74
2024/04/16 01:10:40;;;;;;;5.60;0.90;;;;;;;6.41;100.00;100075.41;5368343;26;20943;-74
2024/04/16 01:13:06;;;;;;;6.07;0.80;;;;;;;6.36;100.00;100071.66;5371853;26;21182;-74
2024/04/16 01:15:32;;;;;;;8.13;1.07;;;;;;;6.30;100.00;100055.44;5343672;26;20564;-74
2024/04/16 01:18:02;;;;;;;6.60;1.00;;;;;;;6.20;100.00;100070.91;5366500;26;20472;-74
2024/04/16 01:20:28;;;;;;;5.60;0.90;;;;;;;6.10;100.00;100043.75;5323176;26;20254;-74
2024/04/16 01:22:53;;;;;;;7.43;1.00;;;;;;;6.21;100.00;100071.72;5373656;26;20535;-74
2024/04/16 01:25:19;;;;;;;6.57;1.20;;;;;;;5.70;100.00;99960.81;5367785;26;20535;-74
2024/04/16 01:27:44;;;;;;;7.07;0.90;;;;;;;6.20;100.00;100064.75;5340775;26;20272;-74
2024/04/16 01:30:10;;;;;;;5.07;0.87;;;;;;;5.33;100.00;99980.44;5374256;26;20703;-74
2024/04/16 01:32:36;;;;;;;5.93;0.90;;;;;;;5.63;100.00;100037.88;5366963;26;20246;-74
2024/04/16 01:35:01;;;;;;;5.30;0.90;;;;;;;6.09;100.00;100093.53;5375705;26;20257;-74
2024/04/16 01:37:27;;;;;;;8.40;1.10;;;;;;;5.26;100.00;99959.06;5341589;26;22526;-74
2024/04/16 01:39:52;;;;;;;7.03;1.00;;;;;;;5.85;100.00;100037.94;5371038;26;20292;-74
2024/04/16 01:42:18;;;;;;;11.50;1.40;;;;;;;5.71;100.00;99996.22;5369731;26;20304;-74
2024/04/16 01:44:45;;;;;;;5.77;0.70;;;;;;;5.75;100.00;100002.81;5364861;26;23808;-74
2024/04/16 01:47:11;;;;;;;4.50;0.80;;;;;;;5.82;100.00;100017.03;5366811;26;20342;-74
2024/04/16 01:49:37;;;;;;;7.57;0.90;;;;;;;5.88;100.00;100019.75;5369002;26;21029;-74
2024/04/16 01:52:02;;;;;;;4.90;0.80;;;;;;;5.54;100.00;99961.84;5369846;26;20250;-74
2024/04/16 01:54:28;;;;;;;5.27;0.90;;;;;;;5.59;100.00;99982.59;5365493;26;20255;-74
2024/04/16 01:59:23;;;;;;;4.23;0.70;;;;;;;6.05;100.00;100015.06;5378711;26;20237;-71
2024/04/16 02:01:49;;;;;;;5.80;0.80;;;;;;;5.80;100.00;99963.97;5354948;26;20467;-72
2024/04/16 02:04:14;;;;;;;5.27;0.80;;;;;;;5.60;100.00;99950.47;5365769;26;20345;-71
2024/04/16 02:06:40;;;;;;;5.83;1.73;;;;;;;5.84;100.00;99978.56;5372290;26;20337;-71
2024/04/16 02:09:05;;;;;;;4.70;0.87;;;;;;;5.57;100.00;99960.66;5368190;26;20398;-71
2024/04/16 02:11:31;;;;;;;6.20;0.90;;;;;;;5.59;100.00;99938.19;5367063;26;20323;-72
2024/04/16 02:13:56;;;;;;;5.40;1.10;;;;;;;5.19;100.00;99897.84;5365050;26;20241;-71
2024/04/16 02:16:22;;;;;;;6.33;0.90;;;;;;;5.58;100.00;99949.84;5371134;26;20362;-71
2024/04/16 02:18:47;;;;;;;4.90;0.70;;;;;;;5.12;100.00;99851.75;5330211;26;20257;-71
2024/04/16 02:21:12;;;;;;;4.53;0.73;;;;;;;5.91;100.00;100005.25;5370155;26;20253;-71
2024/04/16 02:23:40;;;;;;;5.23;0.77;;;;;;;4.98;100.00;99861.41;5372200;26;20320;-71
2024/04/16 02:26:05;;;;;;;5.17;0.90;;;;;;;5.84;100.00;99994.53;5372195;26;20893;-71
2024/04/16 02:28:31;;;;;;;5.40;1.13;;;;;;;5.61;100.00;99976.06;5348172;26;20464;-71
2024/04/16 02:30:56;;;;;;;7.33;0.80;;;;;;;5.85;100.00;100020.13;5378287;26;20249;-71
2024/04/16 02:33:22;;;;;;;6.57;0.97;;;;;;;5.83;100.00;100024.00;5348016;26;20262;-71
2024/04/16 02:35:47;;;;;;;4.70;1.00;;;;;;;5.70;100.00;100011.38;5377042;26;20714;-71
2024/04/16 02:38:14;;;;;;;6.93;0.80;;;;;;;5.79;100.00;100041.34;5375656;26;20971;-72
2024/04/16 02:40:40;;;;;;;6.87;0.80;;;;;;;4.42;100.00;99820.41;5369070;26;20756;-72
2024/04/16 02:43:05;;;;;;;3.87;0.70;;;;;;;5.94;100.00;100041.34;5366128;26;21002;-72
2024/04/16 02:45:31;;;;;;;4.53;0.90;;;;;;;5.55;100.00;99994.59;5341170;26;20741;-72
2024/04/16 02:47:56;;;;;;;4.93;0.87;;;;;;;5.50;100.00;99995.16;5375052;26;20250;-72
2024/04/16 02:50:22;;;;;;;4.43;0.87;;;;;;;5.49;100.00;100003.31;5364214;26;20326;-72
2024/04/16 02:52:48;;;;;;;8.07;0.80;;;;;;;5.79;100.00;100054.66;5368329;26;21455;-72
2024/04/16 02:55:17;;;;;;;7.00;1.10;;;;;;;5.26;100.00;99975.00;5377186;26;20247;-72
2024/04/16 02:57:43;;;;;;;4.53;0.87;;;;;;;4.99;100.00;99965.88;5347225;26;20754;-72
2024/04/16 03:00:09;;;;;;;5.57;0.80;;;;;;;5.63;100.00;100053.03;5365226;26;21293;-73
2024/04/16 03:02:34;;;;;;;5.50;0.80;;;;;;;5.81;100.00;100077.38;5374675;26;20336;-72
2024/04/16 03:05:00;;;;;;;4.97;0.93;;;;;;;5.68;100.00;100084.41;5373845;26;20479;-72
2024/04/16 03:07:25;;;;;;;4.10;0.80;;;;;;;5.66;100.00;100093.38;5337046;26;20269;-72
2024/04/16 03:09:51;;;;;;;8.13;0.90;;;;;;;5.37;100.00;100048.19;5371252;26;21058;-72
2024/04/16 03:12:19;;;;;;;4.63;0.80;;;;;;;5.82;100.00;100088.88;5371663;26;20242;-72
2024/04/16 03:14:44;;;;;;;4.90;0.73;;;;;;;5.72;100.00;100059.06;5373973;26;20339;-72
2024/04/16 03:17:10;;;;;;;5.37;0.70;;;;;;;5.93;100.00;100099.09;5372455;26;20473;-72
2024/04/16 03:19:36;;;;;;;5.03;0.97;;;;;;;5.16;100.00;100004.56;5356484;26;20580;-72
2024/04/16 03:22:01;;;;;;;4.33;0.90;;;;;;;5.76;100.00;100085.13;5373981;26;20745;-72
2024/04/16 03:24:27;;;;;;;5.87;0.80;;;;;;;4.72;100.00;99954.88;5345068;26;20643;-72
2024/04/16 03:26:52;;;;;;;5.80;0.90;;;;;;;5.31;100.00;100049.75;5377619;26;20327;-73
2024/04/16 03:29:18;;;;;;;6.53;1.07;;;;;;;5.04;100.00;99981.28;5376600;26;20292;-72
2024/04/16 03:31:43;;;;;;;4.80;1.00;;;;;;;5.61;100.00;100089.63;5375957;26;20245;-72
2024/04/16 03:34:08;;;;;;;5.13;0.80;;;;;;;5.89;100.00;100143.00;5340201;26;20804;-72
2024/04/16 03:36:34;;;;;;;6.80;1.10;;;;;;;5.49;100.00;100072.47;5378089;26;20266;-73
2024/04/16 03:38:59;;;;;;;4.33;0.80;;;;;;;5.82;100.00;100124.31;5348322;26;20253;-72
2024/04/16 03:41:25;;;;;;;11.53;1.10;;;;;;;6.13;100.00;100152.53;5369363;26;20284;-72
2024/04/16 03:43:50;;;;;;;5.20;1.00;;;;;;;5.93;100.00;100148.78;5376772;26;20329;-72
2024/04/16 03:46:16;;;;;;;4.30;0.80;;;;;;;6.19;100.00;100167.81;5374876;26;20378;-72
2024/04/16 03:48:41;;;;;;;11.20;1.30;;;;;;;5.01;100.00;99995.75;5369406;26;20297;-72
2024/04/16 03:51:07;;;;;;;9.60;1.70;;;;;;;6.09;100.00;100180.56;5346781;26;20254;-72
2024/04/16 03:53:32;;;;;;;9.97;0.97;;;;;;;5.29;100.00;100070.38;5377253;26;20273;-72
2024/04/16 03:55:59;;;;;;;6.33;1.10;;;;;;;5.53;100.00;100082.59;5370542;26;20330;-72
2024/04/16 03:58:28;;;;;;;4.87;1.07;;;;;;;6.02;100.00;100155.72;5370956;26;20747;-73
2024/04/16 04:01:00;;;;;;;5.60;0.90;;;;;;;5.36;100.00;100058.00;5343046;26;20487;-72
2024/04/16 04:03:26;;;;;;;7.37;1.27;;;;;;;5.35;100.00;100093.59;5372866;26;20475;-72
2024/04/16 04:05:52;;;;;;;5.83;0.90;;;;;;;6.24;100.00;100212.50;5339134;26;21186;-73
2024/04/16 04:08:18;;;;;;;5.50;1.23;;;;;;;6.08;100.00;100203.72;5376097;26;20526;-73
2024/04/16 04:10:44;;;;;;;8.93;1.20;;;;;;;5.31;100.00;100060.38;5372875;26;20246;-73
2024/04/16 04:13:09;;;;;;;5.97;0.97;;;;;;;6.22;100.00;100206.53;5371734;26;20476;-72
2024/04/16 04:15:38;;;;;;;6.73;1.13;;;;;;;6.14;100.00;100169.38;5368919;26;21050;-72
2024/04/16 04:18:05;;;;;;;7.10;1.00;;;;;;;6.41;100.00;100194.47;5363643;26;20292;-72
2024/04/16 04:20:30;;;;;;;4.50;1.13;;;;;;;6.16;100.00;100151.34;5369040;26;21079;-72
2024/04/16 04:22:56;;;;;;;6.43;1.17;;;;;;;6.24;100.00;100161.91;5372420;26;20459;-72
2024/04/16 04:25:21;;;;;;;6.97;1.10;;;;;;;6.26;100.00;100178.53;5378833;26;20297;-72
2024/04/16 04:27:46;;;;;;;6.10;1.20;;;;;;;5.96;100.00;100159.94;5378397;26;22298;-72
2024/04/16 04:30:13;;;;;;;6.03;1.07;;;;;;;5.86;100.00;100192.09;5372950;26;20242;-73
2024/04/16 04:32:39;;;;;;;7.53;1.00;;;;;;;5.32;100.00;100106.41;5367042;26;20254;-72
2024/04/16 04:35:06;;;;;;;7.50;1.07;;;;;;;5.21;100.00;100110.34;5379377;26;20569;-73
2024/04/16 04:37:32;;;;;;;5.40;1.30;;;;;;;5.99;100.00;100257.22;5377847;26;20513;-73
2024/04/16 04:39:57;;;;;;;12.23;1.40;;;;;;;5.95;100.00;100285.22;5374467;26;20471;-73
2024/04/16 04:42:25;;;;;;;5.70;1.47;;;;;;;5.39;100.00;100221.69;5375594;26;20781;-72
2024/04/16 04:44:51;;;;;;;5.17;1.20;;;;;;;5.74;100.00;100312.50;5372570;26;22266;-72
2024/04/16 04:47:19;;;;;;;8.60;1.30;;;;;;;5.66;100.00;100308.91;5375746;26;20543;-72
2024/04/16 04:49:44;;;;;;;5.77;1.00;;;;;;;5.87;100.00;100392.56;5381641;26;20248;-73
2024/04/16 04:52:10;;;;;;;4.97;1.00;;;;;;;5.89;100.00;100414.50;5373214;26;22808;-73
2024/04/16 04:54:35;;;;;;;9.80;1.20;;;;;;;5.65;100.00;100402.22;5371172;26;20504;-73
2024/04/16 04:57:01;;;;;;;8.03;1.30;;;;;;;5.79;100.00;100464.50;5350368;26;20233;-73
2024/04/16 04:59:26;;;;;;;5.47;0.97;;;;;;;5.06;100.00;100354.88;5374463;26;20245;-73
2024/04/16 05:01:52;;;;;;;9.50;1.60;;;;;;;5.71;100.00;100483.19;5377182;26;20297;-73
2024/04/16 05:04:17;;;;;;;7.00;1.10;;;;;;;5.77;100.00;100530.38;5344334;26;20243;-73
2024/04/16 05:06:43;;;;;;;8.17;1.20;;;;;;;4.81;100.00;100387.91;5377357;26;20304;-73
2024/04/16 05:09:11;;;;;;;7.90;1.17;;;;;;;5.45;100.00;100532.19;5378148;26;20234;-73
2024/04/16 05:11:37;;;;;;;5.30;1.00;;;;;;;5.60;100.00;100554.41;5375823;26;20251;-73
2024/04/16 05:14:02;;;;;;;7.40;1.00;;;;;;;5.65;100.00;100544.06;5376897;26;20495;-73
2024/04/16 05:16:28;;;;;;;6.40;1.17;;;;;;;5.17;100.00;100433.41;5371287;26;20348;-73
2024/04/16 05:18:54;;;;;;;6.50;1.07;;;;;;;5.36;100.00;100442.81;5365981;26;20762;-73
2024/04/16 05:21:19;;;;;;;6.93;1.10;;;;;;;5.43;100.00;100443.75;5339057;26;20503;-73
2024/04/16 05:23:48;;;;;;;4.43;0.80;;;;;;;5.20;100.00;100742.34;5375228;26;20788;-73
2024/04/16 05:26:14;;;;;;;7.63;0.77;;;;;;;5.40;100.00;100630.28;5378801;26;20735;-73
2024/04/16 05:28:39;;;;;;;5.90;0.87;;;;;;;5.43;100.00;100592.72;5374230;26;20553;-73
2024/04/16 05:31:05;;;;;;;5.30;0.83;;;;;;;5.28;100.00;100536.75;5371754;26;20237;-73
2024/04/16 05:33:31;;;;;;;8.50;1.47;;;;;;;5.66;100.00;100553.69;5351065;26;20238;-72
2024/04/16 05:35:56;;;;;;;4.13;0.80;;;;;;;5.74;100.00;100542.19;5381305;26;20864;-72
2024/04/16 05:38:22;;;;;;;4.40;0.97;;;;;;;5.49;100.00;100477.63;5347832;26;20362;-71
2024/04/16 05:40:47;;;;;;;6.40;1.30;;;;;;;5.74;100.00;100518.25;5346805;26;20329;-71
2024/04/16 05:43:13;;;;;;;5.83;0.90;;;;;;;5.21;100.00;100432.09;5376301;26;20715;-72
2024/04/16 05:45:38;;;;;;;7.73;1.10;;;;;;;5.64;100.00;100531.78;5379397;26;20304;-72
2024/04/16 05:48:04;;;;;;;5.43;1.03;;;;;;;5.53;100.00;100494.09;5378355;26;20653;-71
2024/04/16 05:50:29;;;;;;;7.30;1.23;;;;;;;5.90;100.00;100511.97;5377440;26;20230;-71
2024/04/16 05:52:55;;;;;;;4.93;0.90;;;;;;;5.72;100.00;100516.75;5376702;26;20252;-71
2024/04/16 05:55:20;;;;;;;6.83;0.93;;;;;;;5.37;100.00;100468.38;5372344;26;20960;-72
2024/04/16 05:57:45;;;;;;;5.30;0.87;;;;;;;5.18;100.00;100419.97;5329294;26;20869;-73
2024/04/16 06:00:11;;;;;;;4.80;0.80;;;;;;;5.74;100.00;100473.00;5352476;26;20242;-72
2024/04/16 06:02:37;;;;;;;6.37;0.90;;;;;;;5.79;100.00;100485.78;5360740;26;20258;-72
2024/04/16 06:05:02;;;;;;;6.63;1.10;;;;;;;5.52;100.00;100495.06;5339013;26;20316;-72
2024/04/16 06:07:28;;;;;;;5.07;1.00;;;;;;;5.74;100.00;100541.38;5370397;26;20521;-71
2024/04/16 06:09:53;;;;;;;4.73;0.97;;;;;;;5.03;100.00;100445.59;5341513;26;20246;-71
2024/04/16 06:12:19;;;;;;;6.33;0.90;;;;;;;5.10;100.00;100427.97;5372065;26;20783;-72
2024/04/16 06:14:44;;;;;;;5.77;1.00;;;;;;;5.95;100.00;100535.47;5374710;26;20747;-72
2024/04/16 06:17:10;;;;;;;4.93;1.23;;;;;;;6.13;100.00;100553.81;5379631;26;20295;-71
2024/04/16 06:19:36;;;;;;;6.90;1.90;;;;;;;5.59;100.00;100459.63;5371364;26;20246;-70
2024/04/16 06:22:02;;;;;;;4.70;1.30;;;;;;;5.98;100.00;100505.81;5346643;26;21076;-69
2024/04/16 06:24:27;;;;;;;4.67;0.80;;;;;;;5.53;100.00;100423.09;5368965;26;20392;-69
2024/04/16 06:26:52;;;;;;;4.83;0.83;;;;;;;6.11;100.00;100501.56;5376688;26;20774;-69
2024/04/16 06:29:18;;;;;;;4.60;0.80;;;;;;;5.82;100.00;100464.97;5375509;26;20448;-69
2024/04/16 06:31:43;;;;;;;7.20;1.10;;;;;;;5.67;100.00;100416.19;5343497;26;20284;-69
2024/04/16 06:34:09;;;;;;;6.23;0.87;;;;;;;6.13;100.00;100484.56;5381021;26;20231;-69
2024/04/16 06:36:34;;;;;;;5.90;1.30;;;;;;;5.44;100.00;100379.75;5375826;26;20301;-69
2024/04/16 06:39:00;;;;;;;4.43;1.00;;;;;;;5.47;100.00;100389.22;5379505;26;20229;-69
2024/04/16 06:41:25;;;;;;;4.57;1.00;;;;;;;6.20;100.00;100489.03;5369155;26;20248;-69
2024/04/16 06:43:50;;;;;;;3.97;0.90;;;;;;;5.57;100.00;100413.75;5373691;26;20639;-69
2024/04/16 06:46:16;;;;;;;5.40;1.40;;;;;;;6.19;100.00;100510.47;5376876;26;20879;-69
2024/04/16 06:48:41;;;;;;;7.60;1.40;;;;;;;6.07;100.00;100494.09;5370020;26;20711;-69
2024/04/16 06:51:07;;;;;;;5.10;1.40;;;;;;;6.15;100.00;100509.19;5373110;26;20337;-70
2024/04/16 06:53:32;;;;;;;6.23;1.00;;;;;;;5.69;100.00;100454.06;5342551;26;20236;-70
2024/04/16 06:55:58;;;;;;;5.50;1.30;;;;;;;5.42;100.00;100397.72;5349892;26;20832;-69
2024/04/16 06:58:24;;;;;;;6.50;1.27;;;;;;;6.05;100.00;100514.78;5377834;26;20342;-70
2024/04/16 07:00:49;;;;;;;7.83;1.30;;;;;;;6.22;100.00;100537.63;5373645;26;20478;-70
2024/04/16 07:03:15;;;;;;;5.60;1.20;;;;;;;6.09;100.00;100500.09;5378764;26;20246;-69
2024/04/16 07:05:41;;;;;;;5.17;1.00;;;;;;;6.21;100.00;100522.63;5381088;26;20246;-69
2024/04/16 07:08:06;;;;;;;5.10;1.27;;;;;;;6.19;100.00;100526.47;5342437;26;20540;-69
2024/04/16 07:10:32;;;;;;;4.23;0.87;;;;;;;5.20;100.00;100378.06;5374903;26;20283;-69
2024/04/16 07:12:57;;;;;;;4.33;1.20;;;;;;;5.81;100.00;100505.06;5375546;26;20608;-71
2024/04/16 07:15:22;;;;;;;4.33;1.10;;;;;;;5.99;100.00;100531.44;5376805;26;20323;-69
2024/04/16 07:17:49;;;;;;;5.90;1.30;;;;;;;5.82;100.00;100480.13;5378418;26;20851;-70
2024/04/16 07:20:14;;;;;;;5.40;1.10;;;;;;;5.82;100.00;100469.47;5361566;26;20265;-70
2024/04/16 07:22:40;;;;;;;7.20;1.10;;;;;;;5.68;100.00;100447.09;5378730;26;20906;-70
2024/04/16 07:25:05;;;;;;;6.63;1.20;;;;;;;5.72;100.00;100447.56;5380858;26;20280;-70
2024/04/16 07:27:31;;;;;;;6.03;1.07;;;;;;;6.02;100.00;100467.19;5373337;26;20666;-70
2024/04/16 07:29:56;;;;;;;4.70;1.00;;;;;;;6.52;100.00;100540.38;5348184;26;20846;-70
2024/04/16 07:32:22;;;;;;;5.87;0.90;;;;;;;5.47;100.00;100437.09;5382014;26;20276;-69
2024/04/16 07:34:48;;;;;;;6.93;1.43;;;;;;;5.87;100.00;100469.75;5346970;26;20330;-69
2024/04/16 07:37:13;;;;;;;5.27;1.10;;;;;;;6.10;100.00;100504.38;5378260;26;20288;-69
2024/04/16 07:39:39;;;;;;;4.90;1.10;;;;;;;6.35;100.00;100558.31;5371186;26;20754;-70
2024/04/16 07:42:04;;;;;;;4.97;1.50;;;;;;;6.66;100.00;100578.75;5380782;26;20734;-70
2024/04/16 07:44:30;;;;;;;4.97;1.40;;;;;;;6.54;100.00;100535.69;5386376;26;21121;-70
2024/04/16 07:46:55;;;;;;;7.07;1.60;;;;;;;6.81;100.00;100579.59;5378100;26;20238;-70
2024/04/16 07:49:21;;;;;;;6.30;1.33;;;;;;;6.98;100.00;100590.94;5384328;26;20288;-70
2024/04/16 07:51:48;;;;;;;4.10;1.00;;;;;;;6.96;100.00;100579.63;5381251;26;20262;-70
2024/04/16 07:54:13;;;;;;;5.90;1.30;;;;;;;6.72;100.00;100543.38;5358611;26;20472;-69
2024/04/16 07:56:39;;;;;;;4.40;1.00;;;;;;;6.47;100.00;100532.09;5379885;26;20594;-69
2024/04/16 07:59:04;;;;;;;4.63;1.00;;;;;;;6.79;100.00;100557.59;5375211;26;20254;-70
2024/04/16 08:01:30;;;;;;;4.60;1.07;;;;;;;7.24;100.00;100575.34;5377226;26;20250;-69
2024/04/16 08:03:55;;;;;;;5.20;1.20;;;;;;;6.70;100.00;100513.38;5381693;26;20238;-70
2024/04/16 08:06:21;;;;;;;4.50;1.10;;;;;;;6.82;100.00;100537.75;5380156;26;20243;-70
2024/04/16 08:08:46;;;;;;;6.10;1.60;;;;;;;7.18;100.00;100544.06;5374918;26;20241;-69
2024/04/16 08:11:13;;;;;;;4.37;0.93;;;;;;;7.48;100.00;100568.88;5383329;26;20228;-70
2024/04/16 08:13:39;;;;;;;5.97;1.30;;;;;;;7.48;100.00;100568.06;5378397;26;20608;-69
2024/04/16 08:16:06;;;;;;;4.20;1.00;;;;;;;7.02;100.00;100506.88;5376996;26;20470;-69
2024/04/16 08:18:32;;;;;;;5.37;1.13;;;;;;;7.48;100.00;100518.19;5377522;26;20583;-70
2024/04/16 08:20:57;;;;;;;5.03;1.10;;;;;;;7.32;100.00;100473.03;5374557;26;20468;-69
2024/04/16 08:23:23;;;;;;;7.83;1.00;;;;;;;6.75;100.00;100421.22;5380641;26;20463;-70
2024/04/16 08:26:01;;;;;;;4.10;0.90;;;;;;;7.81;100.00;100522.25;5371556;26;20300;-69
2024/04/16 08:28:30;;;;;;;4.50;0.90;;;;;;;7.75;100.00;100497.13;5376966;26;20281;-70
2024/04/16 08:30:55;;;;;;;5.13;1.43;;;;;;;7.83;100.00;100530.91;5377268;26;20527;-70
2024/04/16 08:33:21;;;;;;;4.83;1.00;;;;;;;7.99;100.00;100538.69;5376892;26;20481;-70
2024/04/16 08:35:48;;;;;;;4.30;1.10;;;;;;;8.10;100.00;100538.19;5381133;26;20277;-69
2024/04/16 08:38:13;;;;;;;4.67;0.97;;;;;;;7.78;100.00;100501.25;5381633;26;20748;-70
2024/04/16 08:40:39;;;;;;;4.23;0.80;;;;;;;7.93;100.00;100494.88;5380654;26;20476;-69
2024/04/16 08:43:05;;;;;;;4.63;1.03;;;;;;;8.10;100.00;100492.78;5348369;26;20776;-70
2024/04/16 08:45:31;;;;;;;3.90;0.80;;;;;;;7.16;100.00;100403.88;5379959;26;20390;-70
2024/04/16 08:47:58;;;;;;;4.30;0.83;;;;;;;7.28;100.00;100349.03;5374631;26;20283;-70
2024/04/16 08:50:24;;;;;;;3.90;0.80;;;;;;;8.05;100.00;100444.44;5348491;26;20810;-70
2024/04/16 08:52:51;;;;;;;3.90;0.70;;;;;;;7.39;100.00;100339.69;5378082;26;20484;-70
2024/04/16 08:55:20;;;;;;;4.97;0.80;;;;;;;8.06;100.00;100451.44;5380614;26;20464;-69
2024/04/16 08:57:46;;;;;;;3.90;0.77;;;;;;;7.93;100.00;100422.78;5378667;26;20473;-69
2024/04/16 09:00:12;;;;;;;3.93;0.70;;;;;;;8.05;100.00;100467.66;5381735;26;20549;-70
2024/04/16 09:02:38;;;;;;;3.70;0.70;;;;;;;8.01;100.00;100498.44;5375557;26;20543;-70
2024/04/16 09:05:07;;;;;;;4.17;0.90;;;;;;;7.89;100.00;100452.72;5379838;26;20527;-69
2024/04/16 09:07:33;;;;;;;4.43;0.70;;;;;;;7.84;100.00;100421.25;5372830;26;20574;-70
2024/04/16 09:10:10;;;;;;;3.83;0.80;;;;;;;7.69;100.00;100391.94;5380693;26;20459;-69
2024/04/16 09:12:36;;;;;;;4.53;0.93;;;;;;;7.87;100.00;100458.25;5374696;26;20593;-69
2024/04/16 09:15:02;;;;;;;5.00;0.70;;;;;;;7.95;100.00;100464.47;5384141;26;21218;-69
2024/04/16 09:17:27;;;;;;;3.83;0.60;;;;;;;8.15;100.00;100510.91;5379678;26;20302;-69
2024/04/16 09:19:59;;;;;;;4.67;0.80;;;;;;;8.27;100.00;100560.13;5384326;26;20242;-69
2024/04/16 09:22:25;;;;;;;3.90;0.73;;;;;;;8.33;100.00;100569.22;5372199;26;20277;-69
2024/04/16 09:24:50;;;;;;;4.00;0.80;;;;;;;8.08;100.00;100536.72;5376136;26;20460;-70
2024/04/16 09:27:16;;;;;;;3.97;0.83;;;;;;;7.76;100.00;100497.97;5344999;26;20234;-70
2024/04/16 09:29:41;;;;;;;4.00;0.90;;;;;;;7.84;100.00;100537.88;5379853;26;20246;-70
2024/04/16 09:32:07;;;;;;;3.87;0.70;;;;;;;8.11;100.00;100587.09;5381264;26;20241;-69
2024/04/16 09:34:33;;;;;;;3.90;0.70;;;;;;;8.08;100.00;100596.31;5380178;26;20238;-69
2024/04/16 09:36:59;;;;;;;5.30;0.73;;;;;;;8.36;100.00;100612.47;5348321;26;20241;-69
2024/04/16 09:39:25;;;;;;;4.03;0.80;;;;;;;7.98;100.00;100531.69;5375333;26;20601;-70
2024/04/16 09:41:52;;;;;;;3.80;0.70;;;;;;;8.44;100.00;100608.03;5349789;26;20478;-70
2024/04/16 09:44:18;;;;;;;3.70;0.60;;;;;;;8.31;100.00;100585.47;5377149;26;20244;-69
2024/04/16 09:46:45;;;;;;;3.80;0.70;;;;;;;8.58;100.00;100607.13;5375914;26;20474;-69
2024/04/16 09:49:16;;;;;;;5.07;0.90;;;;;;;8.51;100.00;100595.56;5349567;26;20582;-69
2024/04/16 09:51:42;;;;;;;3.77;0.70;;;;;;;8.52;100.00;100586.53;5382266;26;21126;-69
2024/04/16 09:54:11;;;;;;;5.13;1.53;;;;;;;8.49;100.00;100579.72;5379744;26;20563;-69
2024/04/16 09:56:37;;;;;;;3.80;0.70;;;;;;;8.62;100.00;100603.09;5374002;26;21231;-69
2024/04/16 09:59:05;;;;;;;4.67;0.80;;;;;;;8.37;100.00;100554.50;5371760;26;21020;-72
2024/04/16 10:01:32;;;;;;;4.43;0.67;;;;;;;8.51;100.00;100580.34;5380537;26;20531;-70
2024/04/16 10:03:57;;;;;;;3.90;0.70;;;;;;;8.22;100.00;100543.03;5375762;26;20512;-71
2024/04/16 10:06:23;;;;;;;4.37;0.80;;;;;;;8.65;100.00;100562.59;5378400;26;20455;-71
2024/04/16 10:08:49;;;;;;;6.00;0.80;;;;;;;8.32;100.00;100437.47;5380686;26;20234;-71
2024/04/16 10:11:18;;;;;;;4.87;0.70;;;;;;;8.87;100.00;100480.44;5379914;26;20354;-71
2024/04/16 10:13:43;;;;;;;3.70;0.70;;;;;;;8.69;100.00;100440.84;5381849;26;20351;-71
2024/04/16 10:16:15;;;;;;;3.70;0.80;;;;;;;9.15;100.00;100471.56;5376732;26;20472;-71
2024/04/16 10:18:41;;;;;;;4.63;1.00;;;;;;;8.58;100.00;100366.53;5323444;26;20761;-71
2024/04/16 10:21:07;;;;;;;4.50;1.00;;;;;;;9.41;100.00;100476.22;5372536;26;21262;-71
2024/04/16 10:23:37;;;;;;;4.23;1.10;;;;;;;9.33;100.00;100468.34;5369552;26;20479;-70
2024/04/16 10:26:04;;;;;;;4.20;1.10;;;;;;;9.38;100.00;100481.97;5372128;26;20285;-70
2024/04/16 10:28:33;;;;;;;4.20;1.10;;;;;;;8.97;100.00;100472.09;5367499;26;20453;-70
2024/04/16 10:31:08;;;;;;;4.10;1.00;;;;;;;9.34;100.00;100502.94;5352094;26;20488;-70
2024/04/16 10:33:39;;;;;;;4.30;1.10;;;;;;;9.15;100.00;100501.00;5344852;26;21197;-70
2024/04/16 10:36:07;;;;;;;4.47;1.13;;;;;;;8.63;100.00;100411.41;5363976;26;20550;-70
2024/04/16 10:38:35;;;;;;;4.83;1.30;;;;;;;8.77;100.00;100448.72;5372290;26;20472;-71
2024/04/16 10:41:01;;;;;;;6.00;1.40;;;;;;;9.09;100.00;100499.13;5370064;26;20466;-70
2024/04/16 10:43:27;;;;;;;4.40;1.23;;;;;;;8.97;100.00;100456.03;5369859;26;20454;-70
2024/04/16 10:45:54;;;;;;;4.10;1.07;;;;;;;9.47;100.00;100452.13;5360682;26;20395;-70
2024/04/16 10:48:21;;;;;;;4.90;1.40;;;;;;;9.32;100.00;100424.72;5352207;26;20467;-70
2024/04/16 10:50:48;;;;;;;5.50;1.67;;;;;;;9.37;100.00;100457.03;5377304;26;20470;-71
2024/04/16 10:53:20;;;;;;;4.50;1.10;;;;;;;9.27;100.00;100437.84;5374142;26;20589;-70
2024/04/16 10:55:47;;;;;;;4.30;1.30;;;;;;;8.65;100.00;100340.69;5378676;26;20488;-71
2024/04/16 10:58:14;;;;;;;3.90;0.87;;;;;;;8.79;100.00;100414.59;5376906;26;20520;-70
2024/04/16 11:00:41;;;;;;;5.00;1.10;;;;;;;8.92;100.00;100466.50;5377609;26;21118;-71
2024/04/16 11:03:09;;;;;;;3.80;0.70;;;;;;;8.46;100.00;100427.75;5345102;26;20574;-70
2024/04/16 11:05:36;;;;;;;4.40;0.90;;;;;;;8.85;100.00;100497.72;5374924;26;20906;-70
2024/04/16 11:08:02;;;;;;;4.17;1.03;;;;;;;8.56;100.00;100416.69;5376109;26;20492;-71
2024/04/16 11:10:28;;;;;;;4.00;0.70;;;;;;;8.81;100.00;100431.25;5374697;26;20830;-70
2024/04/16 11:12:53;;;;;;;4.40;0.70;;;;;;;9.11;100.00;100465.75;5341059;26;20607;-71
2024/04/16 11:15:19;;;;;;;4.10;0.90;;;;;;;9.21;100.00;100478.78;5377413;26;21034;-70
2024/04/16 11:17:45;;;;;;;3.83;0.70;;;;;;;9.29;100.00;100484.00;5377792;26;20297;-70
2024/04/16 11:20:11;;;;;;;4.43;1.00;;;;;;;8.94;100.00;100397.56;5377610;26;20474;-71
2024/04/16 11:22:37;;;;;;;4.10;0.60;;;;;;;9.11;100.00;100424.81;5375339;26;21441;-70